createdAt,value
2018-07-28T00:00:52.923Z,27.4
2018-07-28T00:10:52.172Z,27.4
2018-07-28T00:20:51.410Z,27.4
2018-07-28T00:30:50.654Z,27.4
2018-07-28T00:40:49.896Z,27.4
2018-07-28T00:50:49.143Z,27.5
2018-07-28T01:00:48.392Z,27.4
2018-07-28T01:10:47.625Z,27.4
2018-07-28T01:20:46.919Z,27.5
2018-07-28T01:30:46.165Z,27.4
2018-07-28T01:40:45.356Z,27.4
2018-07-28T01:50:44.600Z,27.4
2018-07-28T02:00:43.842Z,27.5
2018-07-28T02:10:43.085Z,27.4
2018-07-28T02:20:42.329Z,27.4
2018-07-28T02:30:41.580Z,27.4
2018-07-28T02:40:40.818Z,27.4
2018-07-28T02:50:40.063Z,27.4
2018-07-28T03:00:39.306Z,27.4
2018-07-28T03:10:38.554Z,27.4
2018-07-28T03:20:37.790Z,27.4
2018-07-28T03:30:37.034Z,27.4
2018-07-28T03:40:36.278Z,27.4
2018-07-28T03:50:35.519Z,27.4
2018-07-28T04:00:34.762Z,27.4
2018-07-28T04:10:34.002Z,27.3
2018-07-28T04:20:33.244Z,27.3
2018-07-28T04:30:32.488Z,27.3
2018-07-28T04:40:31.731Z,27.3
2018-07-28T04:50:30.969Z,27.3
2018-07-28T05:00:30.209Z,27.3
2018-07-28T05:10:29.453Z,27.3
2018-07-28T05:20:28.701Z,27.3
2018-07-28T05:30:27.985Z,27.3
2018-07-28T05:40:27.179Z,27.3
2018-07-28T05:50:26.427Z,27.3
2018-07-28T06:00:25.664Z,27.3
2018-07-28T06:10:24.908Z,27.4
2018-07-28T06:20:24.177Z,27.4
2018-07-28T06:30:23.395Z,27.4
2018-07-28T06:40:22.639Z,27.4
2018-07-28T06:50:21.880Z,27.1
2018-07-28T07:00:21.123Z,27.1
2018-07-28T07:10:20.373Z,26.6
2018-07-28T07:20:19.613Z,26.2
2018-07-28T07:30:18.878Z,26.1
2018-07-28T07:40:18.095Z,26.3
2018-07-28T07:50:17.337Z,26.3
2018-07-28T08:00:16.581Z,25.9
2018-07-28T08:10:15.829Z,25.7
2018-07-28T08:20:15.078Z,25.7
2018-07-28T08:30:14.308Z,25.6
2018-07-28T08:40:13.552Z,25.6
2018-07-28T08:50:12.793Z,25.6
2018-07-28T09:00:12.036Z,25.5
2018-07-28T09:10:11.276Z,25.5
2018-07-28T09:20:10.516Z,25.5
2018-07-28T09:30:09.757Z,25.6
2018-07-28T09:40:08.999Z,25.7
2018-07-28T09:50:08.240Z,25.7
2018-07-28T10:00:07.482Z,25.8
2018-07-28T10:10:06.721Z,25.8
2018-07-28T10:20:05.961Z,25.9
2018-07-28T10:30:05.235Z,26
2018-07-28T10:40:04.449Z,26.1
2018-07-28T10:50:03.693Z,26.3
2018-07-28T11:00:02.991Z,26.4
2018-07-28T11:10:02.182Z,26.4
2018-07-28T11:20:01.428Z,26.5
2018-07-28T11:30:00.669Z,26.6
2018-07-28T11:39:59.911Z,26.6
2018-07-28T11:49:59.164Z,26.7
2018-07-28T11:59:58.404Z,26.7
2018-07-28T12:09:57.643Z,26.8
2018-07-28T12:19:56.888Z,26.8
2018-07-28T12:29:56.130Z,26.9
2018-07-28T12:39:55.372Z,26.9
2018-07-28T12:49:54.610Z,26.9
2018-07-28T12:59:53.854Z,26.9
2018-07-28T13:09:53.133Z,26.9
2018-07-28T13:19:52.339Z,26.9
2018-07-28T13:29:51.621Z,26.9
2018-07-28T13:39:50.827Z,27
2018-07-28T13:49:50.067Z,27
2018-07-28T13:59:49.321Z,27
2018-07-28T14:09:48.552Z,27.1
2018-07-28T14:19:47.844Z,27.1
2018-07-28T14:29:47.036Z,27.1
2018-07-28T14:39:46.279Z,27.1
2018-07-28T14:49:45.523Z,27.1
2018-07-28T14:59:44.763Z,27.1
2018-07-28T15:09:44.005Z,27.2
2018-07-28T15:19:43.246Z,27.2
2018-07-28T15:29:42.489Z,27.2
2018-07-28T15:39:41.739Z,27.2
2018-07-28T15:49:40.980Z,27.3
2018-07-28T15:59:40.215Z,27.3
2018-07-28T16:09:39.458Z,27.3
2018-07-28T16:19:38.701Z,27.3
2018-07-28T16:29:37.944Z,27.3
2018-07-28T16:39:37.186Z,27.4
2018-07-28T16:49:36.430Z,27.3
2018-07-28T16:59:35.675Z,27.4
2018-07-28T17:09:34.921Z,27.4
2018-07-28T17:19:34.164Z,27.3
2018-07-28T17:29:33.404Z,27.1
2018-07-28T17:39:32.646Z,26.9
2018-07-28T17:49:31.888Z,26.8
2018-07-28T17:59:31.141Z,26.7
2018-07-28T18:09:30.382Z,26.7
2018-07-28T18:19:29.621Z,26.7
2018-07-28T18:29:28.868Z,26.8
2018-07-28T18:39:28.104Z,26.9
2018-07-28T18:49:27.344Z,27
2018-07-28T18:59:26.589Z,27
2018-07-28T19:09:25.832Z,27.1
2018-07-28T19:19:25.082Z,27.1
2018-07-28T19:29:24.327Z,27.1
2018-07-28T19:39:23.571Z,27.1
2018-07-28T19:49:22.814Z,27.2
2018-07-28T19:59:22.063Z,27.3
2018-07-28T20:09:21.312Z,27.3
2018-07-28T20:19:20.587Z,27.3
2018-07-28T20:29:19.800Z,27.3
2018-07-28T20:39:19.051Z,27.4
2018-07-28T20:49:18.296Z,27.4
2018-07-28T20:59:17.551Z,27.4
2018-07-28T21:09:16.783Z,27.4
2018-07-28T21:19:16.028Z,27.4
2018-07-28T21:29:15.325Z,27.5
2018-07-28T21:39:14.523Z,27.5
2018-07-28T21:49:13.768Z,27.5
2018-07-28T21:59:13.058Z,27.5
2018-07-28T22:09:12.250Z,27.6
2018-07-28T22:19:11.495Z,27.6
2018-07-28T22:29:10.738Z,27.6
2018-07-28T22:39:09.981Z,27.6
2018-07-28T22:49:09.227Z,27.6
2018-07-28T22:59:08.469Z,27.6
2018-07-28T23:09:07.724Z,27.6
2018-07-28T23:19:06.966Z,27.6
2018-07-28T23:29:06.204Z,27.6
2018-07-28T23:39:05.446Z,27.6
2018-07-28T23:49:04.692Z,27.6
2018-07-28T23:59:03.941Z,27.6
